createdAt,value
2019-03-19T00:00:53.115Z,101055.20
2019-03-19T00:03:39.538Z,101055.20
2019-03-19T00:06:25.747Z,101047.89
2019-03-19T00:09:12.654Z,101047.89
2019-03-19T00:11:58.979Z,101053.11
2019-03-19T00:14:45.903Z,101058.81
2019-03-19T00:17:32.130Z,101054.00
2019-03-19T00:20:18.033Z,101049.70
2019-03-19T00:23:05.794Z,101054.91
2019-03-19T00:25:53.161Z,101057.64
2019-03-19T00:28:39.742Z,101054.63
2019-03-19T00:31:26.079Z,101052.30
2019-03-19T00:34:12.501Z,101055.78
2019-03-19T00:36:58.809Z,101061.88
2019-03-19T00:39:46.047Z,101057.37
2019-03-19T00:42:31.946Z,101067.13
2019-03-19T00:45:17.823Z,101074.14
2019-03-19T00:48:04.394Z,101071.84
2019-03-19T00:50:50.866Z,101080.14
2019-03-19T00:53:38.523Z,101076.88
2019-03-19T00:56:24.322Z,101080.83
2019-03-19T00:59:10.965Z,101079.02
2019-03-19T01:01:57.251Z,101076.69
2019-03-19T01:04:43.263Z,101076.34
2019-03-19T01:07:29.778Z,101078.38
2019-03-19T01:10:17.469Z,101082.41
2019-03-19T01:13:04.260Z,101090.78
2019-03-19T01:15:50.974Z,101091.31
2019-03-19T01:18:37.119Z,101102.03
2019-03-19T01:21:23.166Z,101101.45
2019-03-19T01:24:09.775Z,101098.57
2019-03-19T01:26:55.783Z,101110.66
2019-03-19T01:29:42.495Z,101109.10
2019-03-19T01:32:28.943Z,101108.23
2019-03-19T01:35:15.162Z,101107.42
2019-03-19T01:38:01.515Z,101109.17
2019-03-19T01:40:47.592Z,101109.97
2019-03-19T01:43:33.795Z,101104.41
2019-03-19T01:46:20.228Z,101106.08
2019-03-19T01:49:06.331Z,101106.48
2019-03-19T01:51:52.746Z,101109.03
2019-03-19T01:54:39.556Z,101115.76
2019-03-19T01:57:25.547Z,101115.76
2019-03-19T02:00:12.130Z,101118.95
2019-03-19T02:02:58.806Z,101115.48
2019-03-19T02:05:44.854Z,101104.88
2019-03-19T02:08:31.259Z,101112.06
2019-03-19T02:11:17.970Z,101112.52
2019-03-19T02:14:03.888Z,101119.77
2019-03-19T02:16:50.051Z,101125.55
2019-03-19T02:19:36.349Z,101121.19
2019-03-19T02:22:22.340Z,101121.84
2019-03-19T02:25:09.067Z,101125.70
2019-03-19T02:27:55.624Z,101131.27
2019-03-19T02:30:41.695Z,101124.80
2019-03-19T02:33:27.768Z,101127.45
2019-03-19T02:36:13.921Z,101137.03
2019-03-19T02:39:00.035Z,101144.95
2019-03-19T02:41:46.704Z,101147.91
2019-03-19T02:44:32.676Z,101144.89
2019-03-19T02:47:18.895Z,101145.75
2019-03-19T02:50:08.085Z,101146.37
2019-03-19T02:52:54.402Z,101151.94
2019-03-19T02:55:40.700Z,101158.97
2019-03-19T02:58:26.897Z,101168.63
2019-03-19T03:01:13.256Z,101180.30
2019-03-19T03:03:59.660Z,101177.59
2019-03-19T03:06:45.814Z,101169.27
2019-03-19T03:09:31.917Z,101175.84
2019-03-19T03:12:19.885Z,101174.78
2019-03-19T03:15:06.273Z,101176.05
2019-03-19T03:17:52.518Z,101177.89
2019-03-19T03:20:39.030Z,101189.20
2019-03-19T03:23:25.100Z,101185.64
2019-03-19T03:26:11.437Z,101198.00
2019-03-19T03:28:57.852Z,101192.48
2019-03-19T03:31:43.996Z,101187.62
2019-03-19T03:34:30.695Z,101190.64
2019-03-19T03:37:17.276Z,101197.20
2019-03-19T03:40:03.403Z,101200.53
2019-03-19T03:42:50.160Z,101195.03
2019-03-19T03:45:36.469Z,101194.51
2019-03-19T03:48:22.341Z,101190.41
2019-03-19T03:51:08.990Z,101197.05
2019-03-19T03:53:55.417Z,101197.00
2019-03-19T03:56:42.332Z,101208.94
2019-03-19T03:59:28.643Z,101202.95
2019-03-19T04:02:15.205Z,101203.97
2019-03-19T04:05:01.723Z,101212.14
2019-03-19T04:07:48.019Z,101214.03
2019-03-19T04:10:34.513Z,101215.97
2019-03-19T04:13:21.280Z,101218.51
2019-03-19T04:16:07.527Z,101218.52
2019-03-19T04:18:53.859Z,101219.85
2019-03-19T04:21:40.067Z,101226.15
2019-03-19T04:24:26.238Z,101220.88
2019-03-19T04:27:16.163Z,101228.98
2019-03-19T04:30:02.694Z,101225.09
2019-03-19T04:32:49.006Z,101233.08
2019-03-19T04:35:35.829Z,101244.63
2019-03-19T04:38:21.846Z,101253.45
2019-03-19T04:41:08.021Z,101258.02
2019-03-19T04:43:55.618Z,101252.03
2019-03-19T04:46:41.814Z,101250.87
2019-03-19T04:49:27.877Z,101248.95
2019-03-19T04:52:14.662Z,101255.94
2019-03-19T04:55:00.899Z,101245.74
2019-03-19T04:57:46.992Z,101247.63
2019-03-19T05:00:34.228Z,101252.27
2019-03-19T05:03:20.071Z,101254.05
2019-03-19T05:06:06.237Z,101260.42
2019-03-19T05:08:53.152Z,101259.44
2019-03-19T05:11:39.482Z,101261.91
2019-03-19T05:14:25.985Z,101263.13
2019-03-19T05:17:12.497Z,101269.16
2019-03-19T05:19:58.646Z,101267.42
2019-03-19T05:22:45.550Z,101268.45
2019-03-19T05:25:31.957Z,101265.66
2019-03-19T05:28:19.257Z,101266.89
2019-03-19T05:31:05.624Z,101268.09
2019-03-19T05:33:51.865Z,101273.55
2019-03-19T05:36:37.777Z,101278.06
2019-03-19T05:39:25.655Z,101280.32
2019-03-19T05:42:12.068Z,101283.55
2019-03-19T05:44:58.269Z,101286.06
2019-03-19T05:47:44.519Z,101291.91
2019-03-19T05:50:30.449Z,101298.80
2019-03-19T05:53:17.761Z,101297.20
2019-03-19T05:56:04.393Z,101294.66
2019-03-19T05:58:50.462Z,101299.22
2019-03-19T06:01:36.714Z,101303.97
2019-03-19T06:04:25.381Z,101304.77
2019-03-19T06:07:11.425Z,101303.50
2019-03-19T06:09:57.448Z,101304.25
2019-03-19T06:12:46.134Z,101306.46
2019-03-19T06:15:32.002Z,101305.66
2019-03-19T06:18:17.814Z,101317.95
2019-03-19T06:21:04.267Z,101325.89
2019-03-19T06:23:50.212Z,101331.74
2019-03-19T06:26:36.045Z,101338.47
2019-03-19T06:29:22.562Z,101338.47
2019-03-19T06:32:08.722Z,101341.31
2019-03-19T06:34:55.150Z,101346.39
2019-03-19T06:37:41.505Z,101352.83
2019-03-19T06:40:27.422Z,101357.36
2019-03-19T06:43:16.924Z,101370.05
2019-03-19T06:46:03.426Z,101370.05
2019-03-19T06:48:49.445Z,101360.73
2019-03-19T06:51:35.990Z,101361.58
2019-03-19T06:54:23.274Z,101364.17
2019-03-19T06:57:09.104Z,101374.75
2019-03-19T06:59:55.581Z,101372.78
2019-03-19T07:02:41.817Z,101378.21
2019-03-19T07:05:27.889Z,101376.12
2019-03-19T07:08:14.280Z,101381.36
2019-03-19T07:11:01.450Z,101386.80
2019-03-19T07:13:47.469Z,101393.06
2019-03-19T07:16:33.398Z,101401.03
2019-03-19T07:19:28.121Z,101397.42
2019-03-19T07:22:17.149Z,101401.59
2019-03-19T07:25:03.779Z,101398.52
2019-03-19T07:27:50.560Z,101402.06
2019-03-19T07:30:36.614Z,101403.16
2019-03-19T07:33:22.709Z,101410.16
2019-03-19T07:36:09.157Z,101409.97
2019-03-19T07:38:55.418Z,101410.44
2019-03-19T07:41:50.393Z,101413.39
2019-03-19T07:44:44.738Z,101419.98
2019-03-19T07:47:31.073Z,101426.98
2019-03-19T07:50:17.553Z,101420.87
2019-03-19T07:53:03.894Z,101424.91
2019-03-19T07:55:50.648Z,101434.45
2019-03-19T07:58:45.117Z,101436.48
2019-03-19T08:01:25.178Z,101440.48
2019-03-19T08:04:11.634Z,101447.19
2019-03-19T08:06:57.997Z,101455.05
2019-03-19T08:09:44.405Z,101449.15
2019-03-19T08:12:30.574Z,101452.72
2019-03-19T08:15:16.661Z,101453.75
2019-03-19T08:18:02.734Z,101460.67
2019-03-19T08:20:48.750Z,101470.80
2019-03-19T08:23:34.878Z,101461.11
2019-03-19T08:26:21.490Z,101457.21
2019-03-19T08:29:07.522Z,101451.82
2019-03-19T08:31:54.051Z,101461.69
2019-03-19T08:34:40.860Z,101469.42
2019-03-19T08:37:26.666Z,101481.84
2019-03-19T08:40:13.532Z,101480.12
2019-03-19T08:42:59.797Z,101480.52
2019-03-19T08:45:45.906Z,101481.66
2019-03-19T08:48:31.882Z,101482.85
2019-03-19T08:51:19.816Z,101488.60
2019-03-19T08:54:05.839Z,101490.59
2019-03-19T08:56:52.318Z,101490.30
2019-03-19T08:59:40.146Z,101487.84
2019-03-19T09:02:26.125Z,101491.43
2019-03-19T09:05:14.750Z,101491.69
2019-03-19T09:08:01.636Z,101495.69
2019-03-19T09:10:47.540Z,101491.29
2019-03-19T09:13:33.773Z,101494.14
2019-03-19T09:16:20.301Z,101501.08
2019-03-19T09:19:06.625Z,101502.23
2019-03-19T09:21:52.633Z,101508.08
2019-03-19T09:24:39.595Z,101504.45
2019-03-19T09:27:26.729Z,101499.91
2019-03-19T09:30:13.769Z,101499.74
2019-03-19T09:33:00.312Z,101497.89
2019-03-19T09:35:46.150Z,101499.36
2019-03-19T09:38:32.309Z,101514.58
2019-03-19T09:41:19.371Z,101513.97
2019-03-19T09:44:05.473Z,101507.89
2019-03-19T09:46:51.441Z,101504.41
2019-03-19T09:49:38.205Z,101506.17
2019-03-19T09:52:24.158Z,101511.84
2019-03-19T09:55:10.758Z,101504.87
2019-03-19T09:57:58.111Z,101499.81
2019-03-19T10:00:46.672Z,101499.56
2019-03-19T10:03:32.579Z,101494.47
2019-03-19T10:06:19.401Z,101501.58
2019-03-19T10:09:07.557Z,101496.45
2019-03-19T10:11:53.865Z,101501.22
2019-03-19T10:14:40.254Z,101504.97
2019-03-19T10:17:26.202Z,101507.69
2019-03-19T10:20:13.421Z,101507.45
2019-03-19T10:23:01.782Z,101516.98
2019-03-19T10:25:47.995Z,101509.61
2019-03-19T10:28:34.396Z,101507.89
2019-03-19T10:31:21.215Z,101503.97
2019-03-19T10:34:07.000Z,101513.74
2019-03-19T10:36:53.707Z,101517.97
2019-03-19T10:39:40.109Z,101516.66
2019-03-19T10:42:26.022Z,101522.27
2019-03-19T10:45:11.986Z,101525.89
2019-03-19T10:47:58.899Z,101517.15
2019-03-19T10:50:45.201Z,101521.08
2019-03-19T10:53:31.190Z,101529.69
2019-03-19T10:56:18.187Z,101530.41
2019-03-19T10:59:04.305Z,101526.51
2019-03-19T11:01:51.511Z,101526.60
2019-03-19T11:04:38.772Z,101533.64
2019-03-19T11:07:24.866Z,101523.42
2019-03-19T11:10:11.386Z,101528.79
2019-03-19T11:12:57.594Z,101536.84
2019-03-19T11:15:44.466Z,101536.91
2019-03-19T11:18:30.850Z,101541.78
2019-03-19T11:21:19.199Z,101536.94
2019-03-19T11:24:05.415Z,101547.10
2019-03-19T11:26:52.106Z,101542.58
2019-03-19T11:29:38.118Z,101549.82
2019-03-19T11:32:24.551Z,101545.55
2019-03-19T11:35:11.906Z,101538.73
2019-03-19T11:37:58.529Z,101547.77
2019-03-19T11:40:44.622Z,101549.63
2019-03-19T11:43:31.158Z,101546.27
2019-03-19T11:46:17.322Z,101540.91
2019-03-19T11:49:03.425Z,101539.95
2019-03-19T11:51:50.021Z,101534.66
2019-03-19T11:54:36.089Z,101542.74
2019-03-19T11:57:22.193Z,101529.70
2019-03-19T12:00:18.958Z,101534.91
2019-03-19T12:03:12.665Z,101521.50
2019-03-19T12:05:53.424Z,101528.28
2019-03-19T12:08:39.731Z,101529.65
2019-03-19T12:11:26.374Z,101527.33
2019-03-19T12:14:12.462Z,101530.06
2019-03-19T12:16:58.890Z,101521.84
2019-03-19T12:19:45.246Z,101538.42
2019-03-19T12:22:33.340Z,101536.50
2019-03-19T12:25:19.434Z,101535.66
2019-03-19T12:28:06.141Z,101534.80
2019-03-19T12:30:54.836Z,101533.78
2019-03-19T12:33:41.563Z,101530.89
2019-03-19T12:36:28.512Z,101536.48
2019-03-19T12:39:16.356Z,101531.42
2019-03-19T12:42:02.652Z,101533.45
2019-03-19T12:44:49.576Z,101530.96
2019-03-19T12:47:36.467Z,101532.19
2019-03-19T12:50:23.109Z,101537.95
2019-03-19T12:53:08.668Z,101538.70
2019-03-19T12:55:55.359Z,101531.05
2019-03-19T12:58:41.473Z,101528.87
2019-03-19T13:01:28.664Z,101532.64
2019-03-19T13:04:14.815Z,101531.91
2019-03-19T13:07:03.489Z,101537.84
2019-03-19T13:09:49.694Z,101540.89
2019-03-19T13:12:36.007Z,101536.45
2019-03-19T13:15:22.527Z,101535.13
2019-03-19T13:18:09.348Z,101532.68
2019-03-19T13:20:55.355Z,101532.70
2019-03-19T13:23:41.804Z,101528.84
2019-03-19T13:26:27.804Z,101533.12
2019-03-19T13:29:14.105Z,101530.37
2019-03-19T13:32:00.818Z,101535.91
2019-03-19T13:34:47.074Z,101533.92
2019-03-19T13:37:33.144Z,101542.27
2019-03-19T13:40:19.887Z,101537.14
2019-03-19T13:43:06.161Z,101541.92
2019-03-19T13:45:51.922Z,101540.33
2019-03-19T13:48:37.996Z,101540.33
2019-03-19T13:51:23.899Z,101537.63
2019-03-19T13:54:10.784Z,101542.28
2019-03-19T13:56:57.136Z,101548.11
2019-03-19T13:59:43.020Z,101541.78
2019-03-19T14:02:29.832Z,101541.55
2019-03-19T14:05:15.720Z,101539.49
2019-03-19T14:08:02.572Z,101540.05
2019-03-19T14:10:48.539Z,101543.46
2019-03-19T14:13:34.751Z,101547.77
2019-03-19T14:16:22.495Z,101541.33
2019-03-19T14:19:08.709Z,101542.92
2019-03-19T14:21:54.716Z,101536.97
2019-03-19T14:24:41.011Z,101531.97
2019-03-19T14:27:28.253Z,101536.22
2019-03-19T14:30:15.604Z,101543.11
2019-03-19T14:33:01.679Z,101541.50
2019-03-19T14:35:48.126Z,101548.31
2019-03-19T14:38:34.766Z,101549.27
2019-03-19T14:41:20.682Z,101540.17
2019-03-19T14:44:06.877Z,101539.59
2019-03-19T14:46:53.590Z,101539.88
2019-03-19T14:49:46.949Z,101539.09
2019-03-19T14:52:28.115Z,101542.08
2019-03-19T14:55:13.974Z,101540.94
2019-03-19T14:58:00.125Z,101543.22
2019-03-19T15:00:48.154Z,101535.60
2019-03-19T15:03:34.258Z,101541.16
2019-03-19T15:06:20.242Z,101545.34
2019-03-19T15:09:09.676Z,101537.07
2019-03-19T15:12:03.182Z,101541.14
2019-03-19T15:14:59.169Z,101544.88
2019-03-19T15:17:45.701Z,101535.83
2019-03-19T15:20:31.418Z,101534.72
2019-03-19T15:23:27.526Z,101535.96
2019-03-19T15:26:13.813Z,101543.30
2019-03-19T15:29:00.262Z,101542.33
2019-03-19T15:31:46.578Z,101545.67
2019-03-19T15:34:33.239Z,101547.09
2019-03-19T15:37:19.448Z,101545.50
2019-03-19T15:40:06.728Z,101550.35
2019-03-19T15:42:52.999Z,101548.49
2019-03-19T15:45:39.006Z,101544.86
2019-03-19T15:48:25.339Z,101549.20
2019-03-19T15:51:12.898Z,101551.52
2019-03-19T15:53:59.119Z,101552.11
2019-03-19T15:56:45.036Z,101551.61
2019-03-19T15:59:30.650Z,101557.25
2019-03-19T16:02:17.034Z,101555.43
2019-03-19T16:05:05.669Z,101558.04
2019-03-19T16:07:51.982Z,101552.88
2019-03-19T16:10:38.164Z,101546.78
2019-03-19T16:13:24.710Z,101546.43
2019-03-19T16:16:10.689Z,101555.19
2019-03-19T16:18:57.222Z,101559.39
2019-03-19T16:21:43.676Z,101560.24
2019-03-19T16:24:33.708Z,101563.62
2019-03-19T16:27:20.036Z,101559.84
2019-03-19T16:30:06.887Z,101563.33
2019-03-19T16:32:52.769Z,101573.03
2019-03-19T16:35:39.373Z,101571.72
2019-03-19T16:38:25.523Z,101568.02
2019-03-19T16:41:11.680Z,101567.66
2019-03-19T16:44:01.414Z,101566.80
2019-03-19T16:46:47.349Z,101570.73
2019-03-19T16:49:33.381Z,101570.81
2019-03-19T16:52:19.773Z,101577.40
2019-03-19T16:55:05.985Z,101578.25
2019-03-19T16:57:55.487Z,101584.04
2019-03-19T17:00:41.608Z,101581.20
2019-03-19T17:03:28.379Z,101577.59
2019-03-19T17:06:14.311Z,101582.09
2019-03-19T17:08:59.921Z,101588.05
2019-03-19T17:11:46.449Z,101593.45
2019-03-19T17:14:32.457Z,101595.91
2019-03-19T17:17:18.701Z,101595.46
2019-03-19T17:20:06.145Z,101599.48
2019-03-19T17:22:52.593Z,101605.19
2019-03-19T17:25:38.937Z,101597.41
2019-03-19T17:28:25.681Z,101599.39
2019-03-19T17:31:11.627Z,101603.02
2019-03-19T17:33:57.460Z,101604.59
2019-03-19T17:36:43.812Z,101612.98
2019-03-19T17:39:29.669Z,101606.55
2019-03-19T17:42:23.741Z,101613.69
2019-03-19T17:45:17.349Z,101612.26
2019-03-19T17:48:03.087Z,101612.87
2019-03-19T17:50:50.610Z,101616.00
2019-03-19T17:53:36.871Z,101627.52
2019-03-19T17:56:23.005Z,101626.41
2019-03-19T17:59:09.772Z,101626.70
2019-03-19T18:01:56.398Z,101627.09
2019-03-19T18:04:44.454Z,101627.72
2019-03-19T18:07:34.362Z,101629.39
2019-03-19T18:10:21.608Z,101627.88
2019-03-19T18:13:08.051Z,101627.92
2019-03-19T18:15:56.233Z,101634.53
2019-03-19T18:18:43.610Z,101635.23
2019-03-19T18:21:32.175Z,101636.06
2019-03-19T18:24:18.298Z,101641.23
2019-03-19T18:27:04.628Z,101640.69
2019-03-19T18:29:51.310Z,101644.98
2019-03-19T18:32:37.290Z,101645.52
2019-03-19T18:35:23.910Z,101640.20
2019-03-19T18:38:09.904Z,101649.88
2019-03-19T18:40:56.130Z,101646.47
2019-03-19T18:43:42.242Z,101645.03
2019-03-19T18:46:28.430Z,101644.14
2019-03-19T18:49:15.122Z,101644.56
2019-03-19T18:52:01.864Z,101647.98
2019-03-19T18:54:47.837Z,101656.29
2019-03-19T18:57:34.538Z,101659.16
2019-03-19T19:00:20.849Z,101655.57
2019-03-19T19:03:07.079Z,101663.98
2019-03-19T19:05:53.638Z,101668.72
2019-03-19T19:08:40.177Z,101671.28
2019-03-19T19:11:26.111Z,101681.45
2019-03-19T19:14:13.052Z,101682.32
2019-03-19T19:16:59.107Z,101687.83
2019-03-19T19:19:45.327Z,101690.25
2019-03-19T19:22:32.036Z,101696.83
2019-03-19T19:25:17.935Z,101700.53
2019-03-19T19:28:04.450Z,101703.11
2019-03-19T19:30:50.484Z,101708.66
2019-03-19T19:33:36.584Z,101708.11
2019-03-19T19:36:23.091Z,101710.94
2019-03-19T19:39:08.992Z,101718.98
2019-03-19T19:41:55.205Z,101717.05
2019-03-19T19:44:41.608Z,101716.02
2019-03-19T19:47:27.980Z,101721.10
2019-03-19T19:50:16.377Z,101720.64
2019-03-19T19:53:03.905Z,101728.21
2019-03-19T19:55:52.347Z,101725.84
2019-03-19T19:58:39.698Z,101724.91
2019-03-19T20:01:25.598Z,101732.63
2019-03-19T20:04:11.785Z,101739.98
2019-03-19T20:06:57.801Z,101742.55
2019-03-19T20:09:44.118Z,101744.88
2019-03-19T20:12:30.730Z,101741.72
2019-03-19T20:15:17.441Z,101744.41
2019-03-19T20:18:04.773Z,101744.77
2019-03-19T20:20:51.138Z,101749.70
2019-03-19T20:23:37.065Z,101752.17
2019-03-19T20:26:23.302Z,101754.48
2019-03-19T20:29:09.466Z,101756.49
2019-03-19T20:31:56.751Z,101758.23
2019-03-19T20:34:42.979Z,101761.47
2019-03-19T20:37:29.579Z,101765.59
2019-03-19T20:40:16.362Z,101772.53
2019-03-19T20:43:02.896Z,101769.03
2019-03-19T20:45:48.682Z,101774.23
2019-03-19T20:48:36.115Z,101768.77
2019-03-19T20:51:22.196Z,101771.81
2019-03-19T20:54:07.781Z,101773.39
2019-03-19T20:56:54.578Z,101777.11
2019-03-19T20:59:40.623Z,101771.39
2019-03-19T21:02:26.596Z,101772.47
2019-03-19T21:05:12.992Z,101770.36
2019-03-19T21:07:59.397Z,101779.20
2019-03-19T21:10:46.002Z,101779.81
2019-03-19T21:13:32.409Z,101786.50
2019-03-19T21:16:18.698Z,101785.06
2019-03-19T21:19:08.055Z,101790.91
2019-03-19T21:21:54.145Z,101796.70
2019-03-19T21:24:40.262Z,101796.88
2019-03-19T21:27:26.866Z,101804.16
2019-03-19T21:30:14.760Z,101805.03
2019-03-19T21:33:00.998Z,101805.06
2019-03-19T21:35:47.501Z,101806.95
2019-03-19T21:38:34.626Z,101812.97
2019-03-19T21:41:20.744Z,101804.66
2019-03-19T21:44:07.351Z,101809.38
2019-03-19T21:46:53.242Z,101808.51
2019-03-19T21:49:39.759Z,101809.73
2019-03-19T21:52:26.373Z,101810.21
2019-03-19T21:55:14.297Z,101806.05
2019-03-19T21:58:01.054Z,101813.71
2019-03-19T22:00:47.277Z,101810.45
2019-03-19T22:03:33.309Z,101801.27
2019-03-19T22:06:19.457Z,101806.26
2019-03-19T22:09:06.648Z,101805.34
2019-03-19T22:11:53.136Z,101809.37
2019-03-19T22:14:38.821Z,101803.95
2019-03-19T22:17:25.352Z,101802.48
2019-03-19T22:20:12.337Z,101794.76
2019-03-19T22:22:58.900Z,101797.80
2019-03-19T22:25:44.856Z,101794.90
2019-03-19T22:28:31.465Z,101790.34
2019-03-19T22:31:17.871Z,101795.59
2019-03-19T22:34:13.723Z,101797.02
2019-03-19T22:36:52.197Z,101797.59
2019-03-19T22:39:38.538Z,101789.73
2019-03-19T22:42:25.260Z,101790.55
2019-03-19T22:45:12.732Z,101796.92
2019-03-19T22:47:59.254Z,101798.55
2019-03-19T22:50:45.809Z,101794.03
2019-03-19T22:53:31.799Z,101800.10
2019-03-19T22:56:18.107Z,101794.45
2019-03-19T22:59:04.642Z,101794.39
2019-03-19T23:01:51.372Z,101795.89
2019-03-19T23:04:37.890Z,101805.07
2019-03-19T23:07:24.365Z,101804.63
2019-03-19T23:10:10.415Z,101804.81
2019-03-19T23:12:56.956Z,101812.05
2019-03-19T23:15:43.768Z,101818.27
2019-03-19T23:18:29.871Z,101823.93
2019-03-19T23:21:16.079Z,101829.29
2019-03-19T23:24:02.487Z,101829.34
2019-03-19T23:26:48.383Z,101832.44
2019-03-19T23:29:34.482Z,101828.71
2019-03-19T23:32:20.412Z,101829.19
2019-03-19T23:35:07.070Z,101826.27
2019-03-19T23:37:53.539Z,101825.20
2019-03-19T23:40:39.732Z,101813.11
2019-03-19T23:43:25.961Z,101811.38
2019-03-19T23:46:12.467Z,101815.67
2019-03-19T23:48:58.767Z,101813.45
2019-03-19T23:51:44.992Z,101813.31
2019-03-19T23:54:31.323Z,101808.20
2019-03-19T23:57:18.299Z,101802.94
